sensor_id;sensor_type;location;lat;lon;timestamp;P1;P2;P0
70554;PMS5003;58104;52.744;15.242;2023-11-18T00:01:35;0;0;
70554;PMS5003;58104;52.744;15.242;2023-11-18T00:04:01;0;0;
70554;PMS5003;58104;52.744;15.242;2023-11-18T00:06:26;0;0;
70554;PMS5003;58104;52.744;15.242;2023-11-18T00:08:51;0;0;
70554;PMS5003;58104;52.744;15.242;2023-11-18T00:11:17;0;0;
70554;PMS5003;58104;52.744;15.242;2023-11-18T00:13:42;0;0;
70554;PMS5003;58104;52.744;15.242;2023-11-18T00:16:08;0;0;
70554;PMS5003;58104;52.744;15.242;2023-11-18T00:18:33;0;0;
70554;PMS5003;58104;52.744;15.242;2023-11-18T00:20:58;0;0;
70554;PMS5003;58104;52.744;15.242;2023-11-18T00:23:24;0;0;
70554;PMS5003;58104;52.744;15.242;2023-11-18T00:25:49;0;0;
70554;PMS5003;58104;52.744;15.242;2023-11-18T00:28:15;0;0;
70554;PMS5003;58104;52.744;15.242;2023-11-18T00:30:40;0;0;
70554;PMS5003;58104;52.744;15.242;2023-11-18T00:33:05;0;0;
70554;PMS5003;58104;52.744;15.242;2023-11-18T00:35:31;0;0;
70554;PMS5003;58104;52.744;15.242;2023-11-18T00:37:56;0;0;
70554;PMS5003;58104;52.744;15.242;2023-11-18T00:40:22;0;0;
70554;PMS5003;58104;52.744;15.242;2023-11-18T00:42:47;0;0;
70554;PMS5003;58104;52.744;15.242;2023-11-18T00:45:13;0;0;
70554;PMS5003;58104;52.744;15.242;2023-11-18T00:47:38;0;0;
70554;PMS5003;58104;52.744;15.242;2023-11-18T00:50:04;0;0;
70554;PMS5003;58104;52.744;15.242;2023-11-18T00:52:29;0;0;
70554;PMS5003;58104;52.744;15.242;2023-11-18T00:54:54;0;0;
70554;PMS5003;58104;52.744;15.242;2023-11-18T00:57:20;0;0;
70554;PMS5003;58104;52.744;15.242;2023-11-18T00:59:45;0;0;
70554;PMS5003;58104;52.744;15.242;2023-11-18T01:02:10;0;0;
70554;PMS5003;58104;52.744;15.242;2023-11-18T01:04:36;0;0;
70554;PMS5003;58104;52.744;15.242;2023-11-18T01:07:01;0;0;
70554;PMS5003;58104;52.744;15.242;2023-11-18T01:09:27;0;0;
70554;PMS5003;58104;52.744;15.242;2023-11-18T01:11:52;0;0;
70554;PMS5003;58104;52.744;15.242;2023-11-18T01:14:18;0;0;
70554;PMS5003;58104;52.744;15.242;2023-11-18T01:16:43;0;0;
70554;PMS5003;58104;52.744;15.242;2023-11-18T01:19:08;0;0;
70554;PMS5003;58104;52.744;15.242;2023-11-18T01:21:34;0;0;
70554;PMS5003;58104;52.744;15.242;2023-11-18T01:23:59;0;0;
70554;PMS5003;58104;52.744;15.242;2023-11-18T01:26:25;0;0;
70554;PMS5003;58104;52.744;15.242;2023-11-18T01:28:50;0;0;
70554;PMS5003;58104;52.744;15.242;2023-11-18T01:31:15;0;0;
70554;PMS5003;58104;52.744;15.242;2023-11-18T01:33:41;0;0;
70554;PMS5003;58104;52.744;15.242;2023-11-18T01:36:07;0;0;
70554;PMS5003;58104;52.744;15.242;2023-11-18T01:38:32;0;0;
70554;PMS5003;58104;52.744;15.242;2023-11-18T01:40:57;0;0;
70554;PMS5003;58104;52.744;15.242;2023-11-18T01:43:23;0;0;
70554;PMS5003;58104;52.744;15.242;2023-11-18T01:45:48;0;0;
70554;PMS5003;58104;52.744;15.242;2023-11-18T01:48:14;0;0;
70554;PMS5003;58104;52.744;15.242;2023-11-18T01:50:39;0;0;
70554;PMS5003;58104;52.744;15.242;2023-11-18T01:53:04;0;0;
70554;PMS5003;58104;52.744;15.242;2023-11-18T01:55:30;0;0;
70554;PMS5003;58104;52.744;15.242;2023-11-18T01:57:55;0;0;
70554;PMS5003;58104;52.744;15.242;2023-11-18T02:00:20;0;0;
70554;PMS5003;58104;52.744;15.242;2023-11-18T02:02:46;0;0;
70554;PMS5003;58104;52.744;15.242;2023-11-18T02:05:11;0;0;
70554;PMS5003;58104;52.744;15.242;2023-11-18T02:07:37;0;0;
70554;PMS5003;58104;52.744;15.242;2023-11-18T02:10:03;0;0;
70554;PMS5003;58104;52.744;15.242;2023-11-18T02:12:29;0;0;
70554;PMS5003;58104;52.744;15.242;2023-11-18T02:14:53;0;0;
70554;PMS5003;58104;52.744;15.242;2023-11-18T02:17:20;0;0;
70554;PMS5003;58104;52.744;15.242;2023-11-18T02:19:44;0;0;
70554;PMS5003;58104;52.744;15.242;2023-11-18T02:22:09;0;0;
70554;PMS5003;58104;52.744;15.242;2023-11-18T02:24:35;0;0;
70554;PMS5003;58104;52.744;15.242;2023-11-18T02:27:00;0;0;
70554;PMS5003;58104;52.744;15.242;2023-11-18T02:29:26;0;0;
70554;PMS5003;58104;52.744;15.242;2023-11-18T02:31:52;0;0;
70554;PMS5003;58104;52.744;15.242;2023-11-18T02:34:17;0;0;
70554;PMS5003;58104;52.744;15.242;2023-11-18T02:36:43;0;0;
70554;PMS5003;58104;52.744;15.242;2023-11-18T02:39:09;0;0;
70554;PMS5003;58104;52.744;15.242;2023-11-18T02:41:33;0;0;
70554;PMS5003;58104;52.744;15.242;2023-11-18T02:43:58;0;0;
70554;PMS5003;58104;52.744;15.242;2023-11-18T02:46:24;0;0;
70554;PMS5003;58104;52.744;15.242;2023-11-18T02:48:49;1;0;
70554;PMS5003;58104;52.744;15.242;2023-11-18T02:51:14;0;0;
70554;PMS5003;58104;52.744;15.242;2023-11-18T02:53:40;0;0;
70554;PMS5003;58104;52.744;15.242;2023-11-18T02:56:06;0;0;
70554;PMS5003;58104;52.744;15.242;2023-11-18T02:58:30;0;0;
70554;PMS5003;58104;52.744;15.242;2023-11-18T03:00:56;0;0;
70554;PMS5003;58104;52.744;15.242;2023-11-18T03:03:21;0;0;
70554;PMS5003;58104;52.744;15.242;2023-11-18T03:05:47;0;0;
70554;PMS5003;58104;52.744;15.242;2023-11-18T03:08:12;0;0;
70554;PMS5003;58104;52.744;15.242;2023-11-18T03:10:37;0;0;
70554;PMS5003;58104;52.744;15.242;2023-11-18T03:13:03;0;0;
70554;PMS5003;58104;52.744;15.242;2023-11-18T03:15:28;0;0;
70554;PMS5003;58104;52.744;15.242;2023-11-18T03:17:54;0;0;
70554;PMS5003;58104;52.744;15.242;2023-11-18T03:20:20;0;0;
70554;PMS5003;58104;52.744;15.242;2023-11-18T03:22:45;1;0;
70554;PMS5003;58104;52.744;15.242;2023-11-18T03:25:10;0;0;
70554;PMS5003;58104;52.744;15.242;2023-11-18T03:27:35;0;0;
70554;PMS5003;58104;52.744;15.242;2023-11-18T03:30:01;0;0;
70554;PMS5003;58104;52.744;15.242;2023-11-18T03:32:26;0;0;
70554;PMS5003;58104;52.744;15.242;2023-11-18T03:34:52;0;0;
70554;PMS5003;58104;52.744;15.242;2023-11-18T03:37:17;1;0;
70554;PMS5003;58104;52.744;15.242;2023-11-18T03:39:42;0;0;
70554;PMS5003;58104;52.744;15.242;2023-11-18T03:42:09;0;0;
70554;PMS5003;58104;52.744;15.242;2023-11-18T03:44:33;0;0;
70554;PMS5003;58104;52.744;15.242;2023-11-18T03:46:59;0;0;
70554;PMS5003;58104;52.744;15.242;2023-11-18T03:49:24;0;0;
70554;PMS5003;58104;52.744;15.242;2023-11-18T03:51:49;0;0;
70554;PMS5003;58104;52.744;15.242;2023-11-18T03:54:15;0;0;
70554;PMS5003;58104;52.744;15.242;2023-11-18T03:56:40;0;0;
70554;PMS5003;58104;52.744;15.242;2023-11-18T03:59:06;0;0;
70554;PMS5003;58104;52.744;15.242;2023-11-18T04:01:31;0;0;
70554;PMS5003;58104;52.744;15.242;2023-11-18T04:03:56;0;0;
70554;PMS5003;58104;52.744;15.242;2023-11-18T04:06:22;0;0;
70554;PMS5003;58104;52.744;15.242;2023-11-18T04:08:48;0;0;
70554;PMS5003;58104;52.744;15.242;2023-11-18T04:11:13;0;0;
70554;PMS5003;58104;52.744;15.242;2023-11-18T04:13:38;0;0;
70554;PMS5003;58104;52.744;15.242;2023-11-18T04:16:04;0;0;
70554;PMS5003;58104;52.744;15.242;2023-11-18T04:18:29;0;0;
70554;PMS5003;58104;52.744;15.242;2023-11-18T04:20:54;0;0;
70554;PMS5003;58104;52.744;15.242;2023-11-18T04:23:20;0;0;
70554;PMS5003;58104;52.744;15.242;2023-11-18T04:25:45;0;0;
70554;PMS5003;58104;52.744;15.242;2023-11-18T04:28:11;0;0;
70554;PMS5003;58104;52.744;15.242;2023-11-18T04:30:36;0;0;
70554;PMS5003;58104;52.744;15.242;2023-11-18T04:33:01;1;0;
70554;PMS5003;58104;52.744;15.242;2023-11-18T04:35:27;0;0;
70554;PMS5003;58104;52.744;15.242;2023-11-18T04:37:52;0;0;
70554;PMS5003;58104;52.744;15.242;2023-11-18T04:40:18;0;0;
70554;PMS5003;58104;52.744;15.242;2023-11-18T04:42:43;0;0;
70554;PMS5003;58104;52.744;15.242;2023-11-18T04:45:09;0;0;
70554;PMS5003;58104;52.744;15.242;2023-11-18T04:47:34;0;0;
70554;PMS5003;58104;52.744;15.242;2023-11-18T04:49:59;0;0;
70554;PMS5003;58104;52.744;15.242;2023-11-18T04:52:25;0;0;
70554;PMS5003;58104;52.744;15.242;2023-11-18T04:54:50;0;0;
70554;PMS5003;58104;52.744;15.242;2023-11-18T04:57:15;0;0;
70554;PMS5003;58104;52.744;15.242;2023-11-18T04:59:41;0;0;
70554;PMS5003;58104;52.744;15.242;2023-11-18T05:02:06;0;0;
70554;PMS5003;58104;52.744;15.242;2023-11-18T05:04:32;0;0;
70554;PMS5003;58104;52.744;15.242;2023-11-18T05:06:57;0;0;
70554;PMS5003;58104;52.744;15.242;2023-11-18T05:09:22;0;0;
70554;PMS5003;58104;52.744;15.242;2023-11-18T05:11:48;0;0;
70554;PMS5003;58104;52.744;15.242;2023-11-18T05:14:13;0;0;
70554;PMS5003;58104;52.744;15.242;2023-11-18T05:16:39;0;0;
70554;PMS5003;58104;52.744;15.242;2023-11-18T05:19:04;0;0;
70554;PMS5003;58104;52.744;15.242;2023-11-18T05:21:30;0;0;
70554;PMS5003;58104;52.744;15.242;2023-11-18T05:23:55;0;0;
70554;PMS5003;58104;52.744;15.242;2023-11-18T05:26:20;0;0;
70554;PMS5003;58104;52.744;15.242;2023-11-18T05:28:46;0;0;
70554;PMS5003;58104;52.744;15.242;2023-11-18T05:31:11;0;0;
70554;PMS5003;58104;52.744;15.242;2023-11-18T05:33:37;0;0;
70554;PMS5003;58104;52.744;15.242;2023-11-18T05:36:02;0;0;
70554;PMS5003;58104;52.744;15.242;2023-11-18T05:38:27;0;0;
70554;PMS5003;58104;52.744;15.242;2023-11-18T05:40:53;0;0;
70554;PMS5003;58104;52.744;15.242;2023-11-18T05:43:18;0;0;
70554;PMS5003;58104;52.744;15.242;2023-11-18T05:45:44;0;0;
70554;PMS5003;58104;52.744;15.242;2023-11-18T05:48:09;0;0;
70554;PMS5003;58104;52.744;15.242;2023-11-18T05:50:34;0;0;
70554;PMS5003;58104;52.744;15.242;2023-11-18T05:53:00;0;0;
70554;PMS5003;58104;52.744;15.242;2023-11-18T05:55:25;0;0;
70554;PMS5003;58104;52.744;15.242;2023-11-18T05:57:51;0;0;
70554;PMS5003;58104;52.744;15.242;2023-11-18T06:00:16;0;0;
70554;PMS5003;58104;52.744;15.242;2023-11-18T06:02:41;0;0;
70554;PMS5003;58104;52.744;15.242;2023-11-18T06:05:07;0;0;
70554;PMS5003;58104;52.744;15.242;2023-11-18T06:07:32;0;0;
70554;PMS5003;58104;52.744;15.242;2023-11-18T06:09:58;0;0;
70554;PMS5003;58104;52.744;15.242;2023-11-18T06:12:23;0;0;
70554;PMS5003;58104;52.744;15.242;2023-11-18T06:14:48;0;0;
70554;PMS5003;58104;52.744;15.242;2023-11-18T06:17:14;0;0;
70554;PMS5003;58104;52.744;15.242;2023-11-18T06:19:40;0;0;
70554;PMS5003;58104;52.744;15.242;2023-11-18T06:22:05;0;0;
70554;PMS5003;58104;52.744;15.242;2023-11-18T06:24:30;0;0;
70554;PMS5003;58104;52.744;15.242;2023-11-18T06:26:56;0;0;
70554;PMS5003;58104;52.744;15.242;2023-11-18T06:29:21;0;0;
70554;PMS5003;58104;52.744;15.242;2023-11-18T06:31:46;0;0;
70554;PMS5003;58104;52.744;15.242;2023-11-18T06:34:12;0;0;
70554;PMS5003;58104;52.744;15.242;2023-11-18T06:36:37;0;0;
70554;PMS5003;58104;52.744;15.242;2023-11-18T06:39:03;0;0;
70554;PMS5003;58104;52.744;15.242;2023-11-18T06:41:28;0;0;
70554;PMS5003;58104;52.744;15.242;2023-11-18T06:43:53;0;0;
70554;PMS5003;58104;52.744;15.242;2023-11-18T06:46:19;0;0;
70554;PMS5003;58104;52.744;15.242;2023-11-18T06:48:44;0;0;
70554;PMS5003;58104;52.744;15.242;2023-11-18T06:51:10;0;0;
70554;PMS5003;58104;52.744;15.242;2023-11-18T06:53:35;0;0;
70554;PMS5003;58104;52.744;15.242;2023-11-18T06:56:00;0;0;
70554;PMS5003;58104;52.744;15.242;2023-11-18T06:58:26;0;0;
70554;PMS5003;58104;52.744;15.242;2023-11-18T07:00:51;1;0;
70554;PMS5003;58104;52.744;15.242;2023-11-18T07:03:17;0;0;
70554;PMS5003;58104;52.744;15.242;2023-11-18T07:05:42;0;0;
70554;PMS5003;58104;52.744;15.242;2023-11-18T07:08:07;2;0;
70554;PMS5003;58104;52.744;15.242;2023-11-18T07:10:33;0;0;
70554;PMS5003;58104;52.744;15.242;2023-11-18T07:12:58;0;0;
70554;PMS5003;58104;52.744;15.242;2023-11-18T07:15:24;0;0;
70554;PMS5003;58104;52.744;15.242;2023-11-18T07:17:49;1;0;
70554;PMS5003;58104;52.744;15.242;2023-11-18T07:20:15;1;1;
70554;PMS5003;58104;52.744;15.242;2023-11-18T07:22:40;3;2;
70554;PMS5003;58104;52.744;15.242;2023-11-18T07:25:06;3;3;
70554;PMS5003;58104;52.744;15.242;2023-11-18T07:27:33;7;5;
70554;PMS5003;58104;52.744;15.242;2023-11-18T07:29:56;8;8;
70554;PMS5003;58104;52.744;15.242;2023-11-18T07:32:22;12;9;
70554;PMS5003;58104;52.744;15.242;2023-11-18T07:34:47;9;9;
70554;PMS5003;58104;52.744;15.242;2023-11-18T07:37:12;9;8;
70554;PMS5003;58104;52.744;15.242;2023-11-18T07:39:38;8;8;
70554;PMS5003;58104;52.744;15.242;2023-11-18T07:42:03;10;10;
70554;PMS5003;58104;52.744;15.242;2023-11-18T07:44:28;12;11;
70554;PMS5003;58104;52.744;15.242;2023-11-18T07:46:53;11;11;
70554;PMS5003;58104;52.744;15.242;2023-11-18T07:49:19;13;13;
70554;PMS5003;58104;52.744;15.242;2023-11-18T07:51:44;13;11;
70554;PMS5003;58104;52.744;15.242;2023-11-18T07:54:10;12;12;
70554;PMS5003;58104;52.744;15.242;2023-11-18T07:56:35;15;11;
70554;PMS5003;58104;52.744;15.242;2023-11-18T07:59:01;13;12;
70554;PMS5003;58104;52.744;15.242;2023-11-18T08:01:26;13;13;
70554;PMS5003;58104;52.744;15.242;2023-11-18T08:03:52;15;12;
70554;PMS5003;58104;52.744;15.242;2023-11-18T08:06:17;14;12;
70554;PMS5003;58104;52.744;15.242;2023-11-18T08:08:43;15;13;
70554;PMS5003;58104;52.744;15.242;2023-11-18T08:11:10;12;12;
70554;PMS5003;58104;52.744;15.242;2023-11-18T08:13:33;14;14;
70554;PMS5003;58104;52.744;15.242;2023-11-18T08:15:58;16;14;
70554;PMS5003;58104;52.744;15.242;2023-11-18T08:18:24;17;15;
70554;PMS5003;58104;52.744;15.242;2023-11-18T08:20:49;16;14;
70554;PMS5003;58104;52.744;15.242;2023-11-18T08:23:14;16;16;
70554;PMS5003;58104;52.744;15.242;2023-11-18T08:25:40;12;12;
70554;PMS5003;58104;52.744;15.242;2023-11-18T08:28:06;13;13;
70554;PMS5003;58104;52.744;15.242;2023-11-18T08:30:30;20;19;
70554;PMS5003;58104;52.744;15.242;2023-11-18T08:32:55;21;19;
70554;PMS5003;58104;52.744;15.242;2023-11-18T08:35:21;27;24;
70554;PMS5003;58104;52.744;15.242;2023-11-18T08:37:47;39;36;
70554;PMS5003;58104;52.744;15.242;2023-11-18T08:40:12;55;54;
70554;PMS5003;58104;52.744;15.242;2023-11-18T08:42:38;39;36;
70554;PMS5003;58104;52.744;15.242;2023-11-18T08:45:04;51;47;
70554;PMS5003;58104;52.744;15.242;2023-11-18T08:47:29;49;42;
70554;PMS5003;58104;52.744;15.242;2023-11-18T08:49:55;36;33;
70554;PMS5003;58104;52.744;15.242;2023-11-18T08:52:20;36;33;
70554;PMS5003;58104;52.744;15.242;2023-11-18T08:54:46;31;29;
70554;PMS5003;58104;52.744;15.242;2023-11-18T08:57:11;33;30;
70554;PMS5003;58104;52.744;15.242;2023-11-18T08:59:36;29;26;
70554;PMS5003;58104;52.744;15.242;2023-11-18T09:02:01;31;27;
70554;PMS5003;58104;52.744;15.242;2023-11-18T09:04:27;26;20;
70554;PMS5003;58104;52.744;15.242;2023-11-18T09:06:53;31;29;
70554;PMS5003;58104;52.744;15.242;2023-11-18T09:09:19;27;22;
70554;PMS5003;58104;52.744;15.242;2023-11-18T09:11:43;28;22;
70554;PMS5003;58104;52.744;15.242;2023-11-18T09:14:09;25;22;
70554;PMS5003;58104;52.744;15.242;2023-11-18T09:16:34;22;19;
70554;PMS5003;58104;52.744;15.242;2023-11-18T09:19:00;20;20;
70554;PMS5003;58104;52.744;15.242;2023-11-18T09:21:25;22;20;
70554;PMS5003;58104;52.744;15.242;2023-11-18T09:23:51;20;18;
70554;PMS5003;58104;52.744;15.242;2023-11-18T09:26:16;22;18;
70554;PMS5003;58104;52.744;15.242;2023-11-18T09:28:42;24;22;
70554;PMS5003;58104;52.744;15.242;2023-11-18T09:31:07;29;27;
70554;PMS5003;58104;52.744;15.242;2023-11-18T09:33:33;21;21;
70554;PMS5003;58104;52.744;15.242;2023-11-18T09:35:58;20;20;
70554;PMS5003;58104;52.744;15.242;2023-11-18T09:38:23;21;21;
70554;PMS5003;58104;52.744;15.242;2023-11-18T09:40:48;24;20;
70554;PMS5003;58104;52.744;15.242;2023-11-18T09:43:13;24;23;
70554;PMS5003;58104;52.744;15.242;2023-11-18T09:45:39;18;18;
70554;PMS5003;58104;52.744;15.242;2023-11-18T09:48:04;17;17;
70554;PMS5003;58104;52.744;15.242;2023-11-18T09:50:29;19;18;
70554;PMS5003;58104;52.744;15.242;2023-11-18T09:52:54;23;22;
70554;PMS5003;58104;52.744;15.242;2023-11-18T09:55:23;18;16;
70554;PMS5003;58104;52.744;15.242;2023-11-18T09:57:47;22;20;
70554;PMS5003;58104;52.744;15.242;2023-11-18T10:00:12;18;16;
70554;PMS5003;58104;52.744;15.242;2023-11-18T10:02:38;17;15;
70554;PMS5003;58104;52.744;15.242;2023-11-18T10:05:02;25;23;
70554;PMS5003;58104;52.744;15.242;2023-11-18T10:07:27;20;20;
70554;PMS5003;58104;52.744;15.242;2023-11-18T10:09:54;14;13;
70554;PMS5003;58104;52.744;15.242;2023-11-18T10:12:18;25;21;
70554;PMS5003;58104;52.744;15.242;2023-11-18T10:14:43;19;18;
70554;PMS5003;58104;52.744;15.242;2023-11-18T10:17:09;20;20;
70554;PMS5003;58104;52.744;15.242;2023-11-18T10:22:00;21;21;
70554;PMS5003;58104;52.744;15.242;2023-11-18T10:24:26;21;20;
70554;PMS5003;58104;52.744;15.242;2023-11-18T10:26:54;25;23;
70554;PMS5003;58104;52.744;15.242;2023-11-18T10:29:16;18;18;
70554;PMS5003;58104;52.744;15.242;2023-11-18T10:31:42;19;19;
70554;PMS5003;58104;52.744;15.242;2023-11-18T10:34:07;18;16;
70554;PMS5003;58104;52.744;15.242;2023-11-18T10:36:32;25;25;
70554;PMS5003;58104;52.744;15.242;2023-11-18T10:38:58;25;21;
70554;PMS5003;58104;52.744;15.242;2023-11-18T10:41:23;22;22;
70554;PMS5003;58104;52.744;15.242;2023-11-18T10:43:48;24;21;
70554;PMS5003;58104;52.744;15.242;2023-11-18T10:46:14;24;22;
70554;PMS5003;58104;52.744;15.242;2023-11-18T10:48:40;26;23;
70554;PMS5003;58104;52.744;15.242;2023-11-18T10:51:05;24;20;
70554;PMS5003;58104;52.744;15.242;2023-11-18T10:53:30;22;22;
70554;PMS5003;58104;52.744;15.242;2023-11-18T10:55:55;26;22;
70554;PMS5003;58104;52.744;15.242;2023-11-18T10:58:21;23;19;
70554;PMS5003;58104;52.744;15.242;2023-11-18T11:00:47;17;17;
70554;PMS5003;58104;52.744;15.242;2023-11-18T11:03:11;20;19;
70554;PMS5003;58104;52.744;15.242;2023-11-18T11:05:37;21;19;
70554;PMS5003;58104;52.744;15.242;2023-11-18T11:08:02;22;18;
70554;PMS5003;58104;52.744;15.242;2023-11-18T11:10:28;22;20;
70554;PMS5003;58104;52.744;15.242;2023-11-18T11:12:53;32;32;
70554;PMS5003;58104;52.744;15.242;2023-11-18T11:15:20;30;28;
70554;PMS5003;58104;52.744;15.242;2023-11-18T11:17:44;25;21;
70554;PMS5003;58104;52.744;15.242;2023-11-18T11:20:10;34;23;
70554;PMS5003;58104;52.744;15.242;2023-11-18T11:22:37;33;26;
70554;PMS5003;58104;52.744;15.242;2023-11-18T11:25:03;30;27;
70554;PMS5003;58104;52.744;15.242;2023-11-18T11:27:28;38;35;
70554;PMS5003;58104;52.744;15.242;2023-11-18T11:29:54;28;26;
70554;PMS5003;58104;52.744;15.242;2023-11-18T11:32:19;30;26;
70554;PMS5003;58104;52.744;15.242;2023-11-18T11:34:44;22;19;
70554;PMS5003;58104;52.744;15.242;2023-11-18T11:37:08;32;29;
70554;PMS5003;58104;52.744;15.242;2023-11-18T11:39:34;27;26;
70554;PMS5003;58104;52.744;15.242;2023-11-18T11:41:59;23;22;
70554;PMS5003;58104;52.744;15.242;2023-11-18T11:44:25;26;25;
70554;PMS5003;58104;52.744;15.242;2023-11-18T11:46:50;18;17;
70554;PMS5003;58104;52.744;15.242;2023-11-18T11:49:15;27;26;
70554;PMS5003;58104;52.744;15.242;2023-11-18T11:51:43;24;24;
70554;PMS5003;58104;52.744;15.242;2023-11-18T11:54:06;22;21;
70554;PMS5003;58104;52.744;15.242;2023-11-18T11:56:38;22;21;
70554;PMS5003;58104;52.744;15.242;2023-11-18T11:58:56;18;17;
70554;PMS5003;58104;52.744;15.242;2023-11-18T12:01:24;17;16;
70554;PMS5003;58104;52.744;15.242;2023-11-18T12:03:47;14;14;
70554;PMS5003;58104;52.744;15.242;2023-11-18T12:06:12;16;14;
70554;PMS5003;58104;52.744;15.242;2023-11-18T12:08:38;16;16;
70554;PMS5003;58104;52.744;15.242;2023-11-18T12:11:04;16;14;
70554;PMS5003;58104;52.744;15.242;2023-11-18T12:13:28;23;18;
70554;PMS5003;58104;52.744;15.242;2023-11-18T12:15:54;14;14;
70554;PMS5003;58104;52.744;15.242;2023-11-18T12:18:19;12;12;
70554;PMS5003;58104;52.744;15.242;2023-11-18T12:20:44;12;12;
70554;PMS5003;58104;52.744;15.242;2023-11-18T12:23:09;12;12;
70554;PMS5003;58104;52.744;15.242;2023-11-18T12:25:35;10;10;
70554;PMS5003;58104;52.744;15.242;2023-11-18T12:32:59;10;8;
70554;PMS5003;58104;52.744;15.242;2023-11-18T12:35:16;8;8;
70554;PMS5003;58104;52.744;15.242;2023-11-18T12:37:53;8;8;
70554;PMS5003;58104;52.744;15.242;2023-11-18T12:40:14;8;8;
70554;PMS5003;58104;52.744;15.242;2023-11-18T12:42:47;7;7;
70554;PMS5003;58104;52.744;15.242;2023-11-18T12:45:05;6;6;
70554;PMS5003;58104;52.744;15.242;2023-11-18T12:47:24;6;6;
70554;PMS5003;58104;52.744;15.242;2023-11-18T12:49:49;6;6;
70554;PMS5003;58104;52.744;15.242;2023-11-18T12:52:15;6;6;
70554;PMS5003;58104;52.744;15.242;2023-11-18T12:54:40;4;4;
70554;PMS5003;58104;52.744;15.242;2023-11-18T12:57:06;6;6;
70554;PMS5003;58104;52.744;15.242;2023-11-18T12:59:31;6;6;
70554;PMS5003;58104;52.744;15.242;2023-11-18T13:01:56;6;5;
70554;PMS5003;58104;52.744;15.242;2023-11-18T13:04:22;8;7;
70554;PMS5003;58104;52.744;15.242;2023-11-18T13:06:47;7;7;
70554;PMS5003;58104;52.744;15.242;2023-11-18T13:09:13;7;7;
70554;PMS5003;58104;52.744;15.242;2023-11-18T13:11:38;6;6;
70554;PMS5003;58104;52.744;15.242;2023-11-18T13:14:04;8;6;
70554;PMS5003;58104;52.744;15.242;2023-11-18T13:16:29;7;6;
70554;PMS5003;58104;52.744;15.242;2023-11-18T13:18:55;7;5;
70554;PMS5003;58104;52.744;15.242;2023-11-18T13:21:20;5;5;
70554;PMS5003;58104;52.744;15.242;2023-11-18T13:23:46;6;5;
70554;PMS5003;58104;52.744;15.242;2023-11-18T13:26:11;6;6;
70554;PMS5003;58104;52.744;15.242;2023-11-18T13:28:37;6;4;
70554;PMS5003;58104;52.744;15.242;2023-11-18T13:31:02;6;6;
70554;PMS5003;58104;52.744;15.242;2023-11-18T13:33:28;11;8;
70554;PMS5003;58104;52.744;15.242;2023-11-18T13:35:53;10;6;
70554;PMS5003;58104;52.744;15.242;2023-11-18T13:38:19;6;6;
70554;PMS5003;58104;52.744;15.242;2023-11-18T13:40:44;6;6;
70554;PMS5003;58104;52.744;15.242;2023-11-18T13:43:10;7;6;
70554;PMS5003;58104;52.744;15.242;2023-11-18T13:45:35;7;6;
70554;PMS5003;58104;52.744;15.242;2023-11-18T13:48:01;7;7;
70554;PMS5003;58104;52.744;15.242;2023-11-18T13:50:26;6;6;
70554;PMS5003;58104;52.744;15.242;2023-11-18T13:52:51;8;8;
70554;PMS5003;58104;52.744;15.242;2023-11-18T13:55:17;12;10;
70554;PMS5003;58104;52.744;15.242;2023-11-18T13:57:42;9;9;
70554;PMS5003;58104;52.744;15.242;2023-11-18T14:00:08;8;8;
70554;PMS5003;58104;52.744;15.242;2023-11-18T14:02:33;11;10;
70554;PMS5003;58104;52.744;15.242;2023-11-18T14:04:59;13;9;
70554;PMS5003;58104;52.744;15.242;2023-11-18T14:07:24;7;6;
70554;PMS5003;58104;52.744;15.242;2023-11-18T14:09:50;9;7;
70554;PMS5003;58104;52.744;15.242;2023-11-18T14:12:15;11;8;
70554;PMS5003;58104;52.744;15.242;2023-11-18T14:14:41;10;9;
70554;PMS5003;58104;52.744;15.242;2023-11-18T14:17:06;8;8;
70554;PMS5003;58104;52.744;15.242;2023-11-18T14:19:32;7;7;
70554;PMS5003;58104;52.744;15.242;2023-11-18T14:21:57;9;8;
70554;PMS5003;58104;52.744;15.242;2023-11-18T14:24:23;11;9;
70554;PMS5003;58104;52.744;15.242;2023-11-18T14:26:48;9;7;
70554;PMS5003;58104;52.744;15.242;2023-11-18T14:29:13;9;9;
70554;PMS5003;58104;52.744;15.242;2023-11-18T14:31:39;7;7;
70554;PMS5003;58104;52.744;15.242;2023-11-18T14:34:04;9;9;
70554;PMS5003;58104;52.744;15.242;2023-11-18T14:36:30;10;10;
70554;PMS5003;58104;52.744;15.242;2023-11-18T14:38:56;11;10;
70554;PMS5003;58104;52.744;15.242;2023-11-18T14:41:21;8;7;
70554;PMS5003;58104;52.744;15.242;2023-11-18T14:43:46;8;8;
70554;PMS5003;58104;52.744;15.242;2023-11-18T14:46:12;9;9;
70554;PMS5003;58104;52.744;15.242;2023-11-18T14:48:37;7;7;
70554;PMS5003;58104;52.744;15.242;2023-11-18T14:51:03;12;11;
70554;PMS5003;58104;52.744;15.242;2023-11-18T14:53:29;9;9;
70554;PMS5003;58104;52.744;15.242;2023-11-18T14:55:54;8;8;
70554;PMS5003;58104;52.744;15.242;2023-11-18T14:58:20;7;6;
70554;PMS5003;58104;52.744;15.242;2023-11-18T15:00:45;8;7;
70554;PMS5003;58104;52.744;15.242;2023-11-18T15:03:10;9;9;
70554;PMS5003;58104;52.744;15.242;2023-11-18T15:05:36;13;8;
70554;PMS5003;58104;52.744;15.242;2023-11-18T15:08:01;7;7;
70554;PMS5003;58104;52.744;15.242;2023-11-18T15:10:27;7;7;
70554;PMS5003;58104;52.744;15.242;2023-11-18T15:12:53;9;8;
70554;PMS5003;58104;52.744;15.242;2023-11-18T15:15:18;10;9;
70554;PMS5003;58104;52.744;15.242;2023-11-18T15:17:44;6;6;
70554;PMS5003;58104;52.744;15.242;2023-11-18T15:20:09;6;6;
70554;PMS5003;58104;52.744;15.242;2023-11-18T15:22:34;8;8;
70554;PMS5003;58104;52.744;15.242;2023-11-18T15:24:59;8;8;
70554;PMS5003;58104;52.744;15.242;2023-11-18T15:27:25;12;9;
70554;PMS5003;58104;52.744;15.242;2023-11-18T15:29:50;9;8;
70554;PMS5003;58104;52.744;15.242;2023-11-18T15:32:16;8;8;
70554;PMS5003;58104;52.744;15.242;2023-11-18T15:34:41;9;9;
70554;PMS5003;58104;52.744;15.242;2023-11-18T15:37:06;9;7;
70554;PMS5003;58104;52.744;15.242;2023-11-18T15:39:32;10;9;
70554;PMS5003;58104;52.744;15.242;2023-11-18T15:41:57;10;8;
70554;PMS5003;58104;52.744;15.242;2023-11-18T15:44:23;11;8;
70554;PMS5003;58104;52.744;15.242;2023-11-18T15:46:48;8;8;
70554;PMS5003;58104;52.744;15.242;2023-11-18T15:49:14;8;8;
70554;PMS5003;58104;52.744;15.242;2023-11-18T15:51:39;9;9;
70554;PMS5003;58104;52.744;15.242;2023-11-18T15:54:05;7;7;
70554;PMS5003;58104;52.744;15.242;2023-11-18T15:56:30;11;9;
70554;PMS5003;58104;52.744;15.242;2023-11-18T15:58:55;10;9;
70554;PMS5003;58104;52.744;15.242;2023-11-18T16:01:21;10;7;
70554;PMS5003;58104;52.744;15.242;2023-11-18T16:03:46;9;8;
70554;PMS5003;58104;52.744;15.242;2023-11-18T16:06:11;10;9;
70554;PMS5003;58104;52.744;15.242;2023-11-18T16:08:37;9;8;
70554;PMS5003;58104;52.744;15.242;2023-11-18T16:11:03;7;7;
70554;PMS5003;58104;52.744;15.242;2023-11-18T16:13:28;9;8;
70554;PMS5003;58104;52.744;15.242;2023-11-18T16:15:53;11;9;
70554;PMS5003;58104;52.744;15.242;2023-11-18T16:18:19;11;8;